| time (UTC) | temp F | wind direction | speed MPH | gust MPH | rain 1hr in | rain 24hr in | rain mn in | humidity % | barometer mb |
| 20260510230032 | 78 | 112 | 2.0 | 7.0 | 0.00 | 0.01 | 0.00 | 75 | 1015.8 |
| 20260510224531 | 79 | 25 | 1.0 | 8.0 | 0.00 | 0.01 | 0.00 | 73 | 1015.7 |
| 20260510223033 | 79 | 75 | 2.0 | 5.0 | 0.00 | 0.01 | 0.00 | 72 | 1015.6 |
| 20260510221530 | 79 | 21 | 2.0 | 9.0 | 0.00 | 0.01 | 0.00 | 73 | 1015.8 |
| 20260510220032 | 80 | 352 | 2.0 | 10.0 | 0.00 | 0.01 | 0.00 | 72 | 1015.2 |
| 20260510214529 | 81 | 346 | 4.0 | 14.0 | 0.00 | 0.01 | 0.00 | 71 | 1015.5 |
| 20260510213041 | 85 | 17 | 4.0 | 11.0 | 0.00 | 0.01 | 0.00 | 68 | 1015.4 |
| 20260510211532 | 87 | 40 | 1.0 | 9.0 | 0.00 | 0.01 | 0.00 | 66 | 1015.0 |
| 20260510210044 | 89 | 59 | 3.0 | 10.0 | 0.00 | 0.01 | 0.00 | 63 | 1014.6 |
| 20260510204539 | 92 | 73 | 2.0 | 5.0 | 0.00 | 0.01 | 0.00 | 54 | 1014.7 |
| 20260510203035 | 92 | 240 | 2.0 | 6.0 | 0.00 | 0.01 | 0.00 | 50 | 1014.8 |
| 20260510201532 | 92 | 219 | 3.0 | 6.0 | 0.00 | 0.01 | 0.00 | 50 | 1014.6 |
| 20260510200030 | 93 | 167 | 4.0 | 10.0 | 0.00 | 0.01 | 0.00 | 48 | 1014.4 |
| 20260510194533 | 93 | 214 | 2.0 | 8.0 | 0.00 | 0.01 | 0.00 | 48 | 1014.5 |
| 20260510193027 | 93 | 175 | 5.0 | 10.0 | 0.00 | 0.01 | 0.00 | 50 | 1014.6 |
| 20260510191536 | 93 | 254 | 4.0 | 8.0 | 0.00 | 0.01 | 0.00 | 47 | 1014.8 |
| 20260510190040 | 92 | 229 | 2.0 | 7.0 | 0.00 | 0.01 | 0.00 | 50 | 1015.0 |
| 20260510184537 | 92 | 279 | 3.0 | 9.0 | 0.00 | 0.01 | 0.00 | 52 | 1015.2 |
| 20260510183034 | 92 | 212 | 3.0 | 8.0 | 0.00 | 0.01 | 0.00 | 52 | 1015.4 |
| 20260510181600 | 92 | 344 | 3.0 | 8.0 | 0.00 | 0.01 | 0.00 | 51 | 1015.4 |
| 20260510180041 | 91 | 220 | 3.0 | 10.0 | 0.00 | 0.01 | 0.00 | 52 | 1015.7 |
| 20260510174551 | 92 | 221 | 3.0 | 12.0 | 0.00 | 0.01 | 0.00 | 50 | 1015.9 |
| 20260510173034 | 91 | 221 | 3.0 | 8.0 | 0.00 | 0.01 | 0.00 | 51 | 1016.0 |
| 20260510171535 | 91 | 166 | 2.0 | 11.0 | 0.00 | 0.01 | 0.00 | 55 | 1016.2 |
| 20260510170033 | 91 | 186 | 2.0 | 7.0 | 0.00 | 0.01 | 0.00 | 59 | 1016.5 |
| 20260510164534 | 89 | 242 | 3.0 | 10.0 | 0.00 | 0.01 | 0.00 | 60 | 1016.6 |
| 20260510163034 | 89 | 234 | 1.0 | 8.0 | 0.00 | 0.01 | 0.00 | 63 | 1016.7 |
| 20260510161533 | 87 | 223 | 5.0 | 11.0 | 0.00 | 0.01 | 0.00 | 64 | 1016.7 |
| 20260510160038 | 86 | 177 | 2.0 | 7.0 | 0.00 | 0.01 | 0.00 | 65 | 1016.8 |
| 20260510154529 | 86 | 204 | 5.0 | 8.0 | 0.00 | 0.01 | 0.00 | 66 | 1016.9 |
| 20260510153032 | 84 | 217 | 4.0 | 7.0 | 0.00 | 0.01 | 0.00 | 68 | 1016.6 |
| 20260510151531 | 83 | 180 | 2.0 | 5.0 | 0.00 | 0.01 | 0.00 | 71 | 1016.8 |
| 20260510150032 | 83 | 220 | 3.0 | 8.0 | 0.00 | 0.01 | 0.00 | 73 | 1016.7 |
| 20260510144533 | 83 | 202 | 1.0 | 7.0 | 0.00 | 0.01 | 0.00 | 74 | 1016.6 |
| 20260510143031 | 82 | 194 | 2.0 | 5.0 | 0.00 | 0.01 | 0.00 | 76 | 1016.6 |
| 20260510141535 | 80 | 275 | 2.0 | 5.0 | 0.00 | 0.01 | 0.00 | 82 | 1016.4 |
| 20260510140032 | 79 | 182 | 3.0 | 6.0 | 0.00 | 0.01 | 0.00 | 82 | 1016.2 |
| 20260510134530 | 78 | 173 | 2.0 | 6.0 | 0.00 | 0.01 | 0.00 | 85 | 1016.3 |
| 20260510133031 | 77 | 180 | 3.0 | 6.0 | 0.00 | 0.01 | 0.00 | 87 | 1016.1 |
| 20260510131531 | 76 | 179 | 4.0 | 8.0 | 0.00 | 0.01 | 0.00 | 89 | 1016.1 |
| 20260510130029 | 75 | 160 | 2.0 | 6.0 | 0.00 | 0.01 | 0.00 | 90 | 1016.0 |
| 20260510124532 | 75 | 146 | 2.0 | 4.0 | 0.00 | 0.01 | 0.00 | 90 | 1016.0 |
| 20260510123032 | 74 | 166 | 1.0 | 3.0 | 0.00 | 0.01 | 0.00 | 90 | 1016.0 |
| 20260510121531 | 73 | 265 | 0.0 | 2.0 | 0.00 | 0.01 | 0.00 | 90 | 1015.9 |
| 20260510120034 | 72 | 265 | 0.0 | 2.0 | 0.00 | 0.01 | 0.00 | 89 | 1015.7 |
| 20260510114531 | 72 | 227 | 1.0 | 2.0 | 0.00 | 0.01 | 0.00 | 89 | 1015.6 |
| 20260510113032 | 72 | 263 | 1.0 | 3.0 | 0.00 | 0.01 | 0.00 | 89 | 1015.4 |
| 20260510111532 | 71 | 0 | 0.0 | 0.0 | 0.00 | 0.01 | 0.00 | 89 | 1015.0 |
| 20260510110034 | 71 | 0 | 0.0 | 0.0 | 0.00 | 0.01 | 0.00 | 89 | 1014.6 |
| 20260510104530 | 71 | 0 | 0.0 | 0.0 | 0.00 | 0.01 | 0.00 | 89 | 1014.4 |
| 20260510103029 | 71 | 0 | 0.0 | 0.0 | 0.00 | 0.01 | 0.00 | 89 | 1014.1 |
| 20260510101530 | 71 | 0 | 0.0 | 0.0 | 0.00 | 0.01 | 0.00 | 88 | 1014.1 |
| 20260510100032 | 71 | 0 | 0.0 | 0.0 | 0.00 | 0.01 | 0.00 | 88 | 1013.8 |
| 20260510094532 | 72 | 0 | 0.0 | 0.0 | 0.00 | 0.01 | 0.00 | 88 | 1013.8 |
| 20260510093040 | 71 | 0 | 0.0 | 0.0 | 0.00 | 0.01 | 0.00 | 88 | 1013.9 |
| 20260510091537 | 72 | 0 | 0.0 | 2.0 | 0.00 | 0.01 | 0.00 | 88 | 1013.9 |
| 20260510090035 | 71 | 0 | 0.0 | 0.0 | 0.00 | 0.01 | 0.00 | 88 | 1013.6 |
| 20260510084534 | 72 | 0 | 0.0 | 0.0 | 0.00 | 0.01 | 0.00 | 88 | 1013.5 |
| 20260510083033 | 72 | 0 | 0.0 | 2.0 | 0.00 | 0.01 | 0.00 | 88 | 1013.6 |
| 20260510081529 | 72 | 264 | 1.0 | 3.0 | 0.00 | 0.01 | 0.00 | 88 | 1013.8 |
| 20260510080031 | 72 | 0 | 0.0 | 0.0 | 0.00 | 0.01 | 0.00 | 88 | 1013.8 |
| 20260510074530 | 72 | 0 | 0.0 | 0.0 | 0.00 | 0.01 | 0.00 | 87 | 1013.7 |
| 20260510073030 | 72 | 0 | 0.0 | 0.0 | 0.00 | 0.01 | 0.00 | 87 | 1013.7 |
| 20260510071538 | 72 | 0 | 0.0 | 0.0 | 0.00 | 0.01 | 0.00 | 87 | 1013.6 |
| 20260510070031 | 73 | 0 | 0.0 | 0.0 | 0.00 | 0.01 | 0.00 | 87 | 1013.6 |
| 20260510064530 | 73 | 0 | 0.0 | 0.0 | 0.00 | 0.01 | 0.00 | 87 | 1013.9 |
| 20260510063048 | 73 | 0 | 0.0 | 2.0 | 0.00 | 0.01 | 0.00 | 87 | 1013.9 |
| 20260510061544 | 73 | 0 | 0.0 | 0.0 | 0.00 | 0.01 | 0.00 | 87 | 1014.1 |
| 20260510060030 | 74 | 0 | 0.0 | 2.0 | 0.00 | 0.01 | 0.00 | 86 | 1014.2 |
| 20260510054532 | 74 | 273 | 1.0 | 2.0 | 0.00 | 0.01 | 0.00 | 86 | 1014.5 |
| 20260510053031 | 74 | 0 | 0.0 | 0.0 | 0.00 | 0.01 | 0.00 | 86 | 1014.7 |
| 20260510051532 | 74 | 0 | 0.0 | 0.0 | 0.00 | 0.01 | 0.00 | 86 | 1014.8 |
| 20260510050029 | 74 | 0 | 0.0 | 0.0 | 0.00 | 0.01 | 0.00 | 86 | 1014.9 |
| 20260510044536 | 74 | 0 | 0.0 | 2.0 | 0.00 | 0.01 | 0.00 | 86 | 1014.9 |
| 20260510043034 | 74 | 109 | 0.0 | 2.0 | 0.00 | 0.01 | 0.00 | 85 | 1014.9 |
| 20260510041531 | 74 | 0 | 0.0 | 2.0 | 0.00 | 0.01 | 0.00 | 85 | 1014.9 |
| 20260510040031 | 74 | 51 | 1.0 | 2.0 | 0.00 | 0.01 | 0.00 | 85 | 1015.0 |
| 20260510034530 | 75 | 0 | 0.0 | 2.0 | 0.00 | 0.01 | 0.01 | 84 | 1015.0 |
| 20260510033031 | 75 | 0 | 0.0 | 2.0 | 0.00 | 0.01 | 0.01 | 84 | 1015.2 |
| 20260510031544 | 75 | 0 | 0.0 | 2.0 | 0.00 | 0.01 | 0.01 | 84 | 1015.2 |
| 20260510030030 | 75 | 31 | 0.0 | 2.0 | 0.00 | 0.01 | 0.01 | 84 | 1015.2 |
| 20260510024542 | 75 | 18 | 0.0 | 3.0 | 0.00 | 0.01 | 0.01 | 84 | 1015.0 |
| 20260510023029 | 75 | 86 | 0.0 | 4.0 | 0.00 | 0.01 | 0.01 | 84 | 1014.9 |
| 20260510021530 | 75 | 79 | 0.0 | 2.0 | 0.00 | 0.01 | 0.01 | 83 | 1014.6 |
| 20260510020032 | 75 | 0 | 1.0 | 4.0 | 0.00 | 0.01 | 0.01 | 83 | 1014.4 |
| 20260510014534 | 75 | 117 | 0.0 | 4.0 | 0.00 | 0.01 | 0.01 | 82 | 1014.8 |
| 20260510013029 | 76 | 0 | 0.0 | 4.0 | 0.00 | 0.01 | 0.01 | 82 | 1014.6 |
| 20260510011542 | 76 | 111 | 1.0 | 8.0 | 0.00 | 0.01 | 0.01 | 82 | 1014.3 |
| 20260510010034 | 75 | 340 | 2.0 | 12.0 | 0.00 | 0.01 | 0.01 | 81 | 1014.2 |
| 20260510004533 | 75 | 32 | 3.0 | 9.0 | 0.01 | 0.01 | 0.01 | 82 | 1013.7 |
| 20260510003056 | 75 | 360 | 1.0 | 9.0 | 0.01 | 0.01 | 0.01 | 82 | 1013.5 |
| 20260510001531 | 75 | 5 | 2.0 | 12.0 | 0.01 | 0.01 | 0.01 | 82 | 1013.0 |
| 20260510000031 | 76 | 42 | 6.0 | 16.0 | 0.01 | 0.01 | 0.01 | 81 | 1012.5 |
| 20260509234530 | 78 | 340 | 3.0 | 10.0 | 0.00 | 0.00 | 0.00 | 80 | 1012.6 |
| 20260509233031 | 78 | 82 | 3.0 | 14.0 | 0.00 | 0.00 | 0.00 | 80 | 1012.5 |
| 20260509231540 | 78 | 30 | 6.0 | 14.0 | 0.00 | 0.00 | 0.00 | 78 | 1012.4 |